createdAt,value
2019-03-25T00:01:30.011Z,78.00
2019-03-25T00:03:58.450Z,87.30
2019-03-25T00:06:26.961Z,86.57
2019-03-25T00:09:04.919Z,85.72
2019-03-25T00:11:25.582Z,87.10
2019-03-25T00:13:54.282Z,80.80
2019-03-25T00:16:22.734Z,87.95
2019-03-25T00:18:51.173Z,83.10
2019-03-25T00:21:19.622Z,86.20
2019-03-25T00:23:48.064Z,82.30
2019-03-25T00:26:16.543Z,84.65
2019-03-25T00:28:44.965Z,84.42
2019-03-25T00:31:13.422Z,86.60
2019-03-25T00:33:41.862Z,89.32
2019-03-25T00:36:10.325Z,85.57
2019-03-25T00:38:38.760Z,85.17
2019-03-25T00:41:07.200Z,84.85
2019-03-25T00:43:35.644Z,86.12
2019-03-25T00:46:04.097Z,86.33
2019-03-25T00:48:32.890Z,90.77
2019-03-25T00:51:01.337Z,85.38
2019-03-25T00:53:29.853Z,90.05
2019-03-25T00:55:58.688Z,90.76
2019-03-25T00:58:27.130Z,86.35
2019-03-25T01:00:55.584Z,88.50
2019-03-25T01:03:24.017Z,90.42
2019-03-25T01:05:52.469Z,90.77
2019-03-25T01:08:20.913Z,94.62
2019-03-25T01:10:49.354Z,93.15
2019-03-25T01:13:17.795Z,89.42
2019-03-25T01:15:46.248Z,93.25
2019-03-25T01:18:17.081Z,92.57
2019-03-25T01:20:44.863Z,95.53
2019-03-25T01:23:13.382Z,90.85
2019-03-25T01:25:41.836Z,94.65
2019-03-25T01:28:10.655Z,98.85
2019-03-25T01:30:39.097Z,92.45
2019-03-25T01:33:07.537Z,94.85
2019-03-25T01:35:35.985Z,98.30
2019-03-25T01:38:04.779Z,94.92
2019-03-25T01:40:33.225Z,92.02
2019-03-25T01:43:01.665Z,94.52
2019-03-25T01:45:30.119Z,93.60
2019-03-25T01:47:58.555Z,96.32
2019-03-25T01:50:27.076Z,95.32
2019-03-25T01:52:55.519Z,99.37
2019-03-25T01:55:23.969Z,96.47
2019-03-25T01:57:52.404Z,103.30
2019-03-25T02:00:20.854Z,99.42
2019-03-25T02:02:49.369Z,99.80
2019-03-25T02:05:17.810Z,102.15
2019-03-25T02:07:46.261Z,94.95
2019-03-25T02:10:15.233Z,99.37
2019-03-25T02:12:43.690Z,98.50
2019-03-25T02:15:12.361Z,97.70
2019-03-25T02:17:40.832Z,95.75
2019-03-25T02:20:09.573Z,100.67
2019-03-25T02:22:38.107Z,96.65
2019-03-25T02:25:06.954Z,98.22
2019-03-25T02:27:35.405Z,98.33
2019-03-25T02:30:07.727Z,101.90
2019-03-25T02:32:36.199Z,97.17
2019-03-25T02:35:06.338Z,102.35
2019-03-25T02:37:34.789Z,99.80
2019-03-25T02:40:04.076Z,97.57
2019-03-25T02:42:32.517Z,104.63
2019-03-25T02:45:00.960Z,100.80
2019-03-25T02:47:29.404Z,96.00
2019-03-25T02:49:57.837Z,98.58
2019-03-25T02:52:26.299Z,99.30
2019-03-25T02:54:54.738Z,99.65
2019-03-25T02:57:23.192Z,100.87
2019-03-25T02:59:51.633Z,101.22
2019-03-25T03:02:20.083Z,102.25
2019-03-25T03:04:48.519Z,100.97
2019-03-25T03:07:16.975Z,102.58
2019-03-25T03:09:45.412Z,99.42
2019-03-25T03:12:13.879Z,108.47
2019-03-25T03:14:42.330Z,107.10
2019-03-25T03:17:10.779Z,100.72
2019-03-25T03:19:39.209Z,104.55
2019-03-25T03:22:07.684Z,108.45
2019-03-25T03:24:36.189Z,107.83
2019-03-25T03:27:04.707Z,108.20
2019-03-25T03:29:33.221Z,107.50
2019-03-25T03:32:01.691Z,100.78
2019-03-25T03:34:30.133Z,100.25
2019-03-25T03:36:58.563Z,102.60
2019-03-25T03:39:27.016Z,107.35
2019-03-25T03:41:56.345Z,107.75
2019-03-25T03:44:24.800Z,107.55
2019-03-25T03:46:53.233Z,105.27
2019-03-25T03:49:21.677Z,100.62
2019-03-25T03:51:50.956Z,103.60
2019-03-25T03:54:19.541Z,100.25
2019-03-25T03:56:49.816Z,107.10
2019-03-25T03:59:18.757Z,102.53
2019-03-25T04:01:47.213Z,103.42
2019-03-25T04:04:15.674Z,101.45
2019-03-25T04:06:44.441Z,105.75
2019-03-25T04:09:13.227Z,101.25
2019-03-25T04:11:41.661Z,103.02
2019-03-25T04:14:10.105Z,99.50
2019-03-25T04:16:38.541Z,105.72
2019-03-25T04:19:06.998Z,106.97
2019-03-25T04:21:35.430Z,98.40
2019-03-25T04:24:03.951Z,91.63
2019-03-25T04:26:32.377Z,93.30
2019-03-25T04:29:01.174Z,95.55
2019-03-25T04:31:29.610Z,97.12
2019-03-25T04:33:58.056Z,91.00
2019-03-25T04:36:26.486Z,98.33
2019-03-25T04:38:54.938Z,91.87
2019-03-25T04:41:23.378Z,97.50
2019-03-25T04:43:54.366Z,93.60
2019-03-25T04:46:21.977Z,93.92
2019-03-25T04:48:50.505Z,91.95
2019-03-25T04:51:18.941Z,89.30
2019-03-25T04:53:47.386Z,91.25
2019-03-25T04:56:15.815Z,90.50
2019-03-25T04:58:44.271Z,97.78
2019-03-25T05:01:12.699Z,99.10
2019-03-25T05:03:41.146Z,95.35
2019-03-25T05:06:09.579Z,93.00
2019-03-25T05:08:38.024Z,94.13
2019-03-25T05:11:06.453Z,90.73
2019-03-25T05:13:34.914Z,96.57
2019-03-25T05:16:03.662Z,93.25
2019-03-25T05:18:32.094Z,95.92
2019-03-25T05:21:00.561Z,91.92
2019-03-25T05:23:29.023Z,88.90
2019-03-25T05:25:57.466Z,92.35
2019-03-25T05:28:26.173Z,90.72
2019-03-25T05:30:54.920Z,89.77
2019-03-25T05:33:23.348Z,97.90
2019-03-25T05:35:51.789Z,90.72
2019-03-25T05:38:20.222Z,96.32
2019-03-25T05:40:48.664Z,95.30
2019-03-25T05:43:17.169Z,93.00
2019-03-25T05:45:45.613Z,98.10
2019-03-25T05:48:14.040Z,97.72
2019-03-25T05:50:42.506Z,91.05
2019-03-25T05:53:11.031Z,92.30
2019-03-25T05:55:40.927Z,96.00
2019-03-25T05:58:09.797Z,93.03
2019-03-25T06:00:39.005Z,95.65
2019-03-25T06:03:07.441Z,92.70
2019-03-25T06:05:35.906Z,95.10
2019-03-25T06:08:04.644Z,98.97
2019-03-25T06:10:33.109Z,92.05
2019-03-25T06:13:01.922Z,94.13
2019-03-25T06:15:30.364Z,96.37
2019-03-25T06:17:58.867Z,97.97
2019-03-25T06:20:27.576Z,101.00
2019-03-25T06:22:56.350Z,94.37
2019-03-25T06:25:24.803Z,95.35
2019-03-25T06:27:53.314Z,89.00
2019-03-25T06:30:22.022Z,91.40
2019-03-25T06:32:50.796Z,85.87
2019-03-25T06:35:19.238Z,77.58
2019-03-25T06:37:47.669Z,70.37
2019-03-25T06:40:16.285Z,89.45
2019-03-25T06:42:44.718Z,79.92
2019-03-25T06:45:13.498Z,60.88
2019-03-25T06:47:41.934Z,72.90
2019-03-25T06:50:10.838Z,70.52
2019-03-25T06:52:39.271Z,62.88
2019-03-25T06:55:09.374Z,68.95
2019-03-25T06:57:38.772Z,65.50
2019-03-25T07:00:09.798Z,63.10
2019-03-25T07:02:38.621Z,68.77
2019-03-25T07:05:08.289Z,66.95
2019-03-25T07:07:36.806Z,76.75
2019-03-25T07:10:07.161Z,71.00
2019-03-25T07:12:36.676Z,78.65
2019-03-25T07:15:07.449Z,70.42
2019-03-25T07:17:35.881Z,72.67
2019-03-25T07:20:07.139Z,70.97
2019-03-25T07:25:03.569Z,75.57
2019-03-25T07:27:36.683Z,69.62
2019-03-25T07:30:02.318Z,68.85
2019-03-25T07:32:30.777Z,75.37
2019-03-25T07:34:59.205Z,75.57
2019-03-25T07:37:27.667Z,77.53
2019-03-25T07:39:56.094Z,72.75
2019-03-25T07:42:24.561Z,69.72
2019-03-25T07:44:52.994Z,69.47
2019-03-25T07:47:21.437Z,73.20
2019-03-25T07:49:49.874Z,73.33
2019-03-25T07:52:18.405Z,73.30
2019-03-25T07:54:46.845Z,66.95
2019-03-25T07:57:15.378Z,77.45
2019-03-25T07:59:43.837Z,76.37
2019-03-25T08:02:12.371Z,77.30
2019-03-25T08:04:42.545Z,69.62
2019-03-25T08:07:11.014Z,72.85
2019-03-25T08:09:39.510Z,74.90
2019-03-25T08:12:08.022Z,71.12
2019-03-25T08:14:36.457Z,77.27
2019-03-25T08:17:04.994Z,77.55
2019-03-25T08:19:33.427Z,69.22
2019-03-25T08:22:02.310Z,78.37
2019-03-25T08:24:30.740Z,74.62
2019-03-25T08:26:59.205Z,72.47
2019-03-25T08:29:27.635Z,75.32
2019-03-25T08:31:57.909Z,77.85
2019-03-25T08:34:26.260Z,82.25
2019-03-25T08:37:14.069Z,80.47
2019-03-25T08:39:42.498Z,81.55
2019-03-25T08:42:10.961Z,72.05
2019-03-25T08:44:39.393Z,65.80
2019-03-25T08:47:07.865Z,69.92
2019-03-25T08:49:36.297Z,61.90
2019-03-25T08:52:04.885Z,57.20
2019-03-25T08:54:33.322Z,58.83
2019-03-25T08:57:01.767Z,60.52
2019-03-25T08:59:30.197Z,59.90
2019-03-25T09:01:58.648Z,56.02
2019-03-25T09:04:27.153Z,52.30
2019-03-25T09:06:55.611Z,53.83
2019-03-25T09:09:24.037Z,50.50
2019-03-25T09:11:52.492Z,54.95
2019-03-25T09:14:20.933Z,54.60
2019-03-25T09:16:49.389Z,53.38
2019-03-25T09:19:17.826Z,54.48
2019-03-25T09:21:46.265Z,49.53
2019-03-25T09:24:14.708Z,50.75
2019-03-25T09:26:43.145Z,51.23
2019-03-25T09:29:11.580Z,53.40
2019-03-25T09:31:40.021Z,51.80
2019-03-25T09:34:08.521Z,50.50
2019-03-25T09:36:37.250Z,44.95
2019-03-25T09:39:07.167Z,46.18
2019-03-25T09:41:35.617Z,45.58
2019-03-25T09:44:04.188Z,42.55
2019-03-25T09:46:32.639Z,43.63
2019-03-25T09:49:01.073Z,37.15
2019-03-25T09:51:29.662Z,42.23
2019-03-25T09:53:58.097Z,42.10
2019-03-25T09:56:26.524Z,42.98
2019-03-25T09:58:54.970Z,44.67
2019-03-25T10:01:23.407Z,44.13
2019-03-25T10:03:51.921Z,41.75
2019-03-25T10:06:20.417Z,39.78
2019-03-25T10:08:48.862Z,45.17
2019-03-25T10:11:17.406Z,40.57
2019-03-25T10:13:45.954Z,44.73
2019-03-25T10:16:14.469Z,40.23
2019-03-25T10:18:42.913Z,42.00
2019-03-25T10:21:11.346Z,45.90
2019-03-25T10:23:39.800Z,50.90
2019-03-25T10:26:08.225Z,46.83
2019-03-25T10:28:48.051Z,47.48
2019-03-25T10:31:06.966Z,54.97
2019-03-25T10:33:36.524Z,46.92
2019-03-25T10:36:05.025Z,49.40
2019-03-25T10:38:33.471Z,55.65
2019-03-25T10:41:02.186Z,55.67
2019-03-25T10:43:30.632Z,49.48
2019-03-25T10:45:59.061Z,56.42
2019-03-25T10:48:27.841Z,49.55
2019-03-25T10:50:56.269Z,43.33
2019-03-25T10:53:24.713Z,50.28
2019-03-25T10:55:53.142Z,42.93
2019-03-25T10:58:21.590Z,43.63
2019-03-25T11:00:50.349Z,43.70
2019-03-25T11:03:18.794Z,40.10
2019-03-25T11:05:47.792Z,48.10
2019-03-25T11:08:16.233Z,42.43
2019-03-25T11:10:44.659Z,42.10
2019-03-25T11:13:13.127Z,46.75
2019-03-25T11:15:41.558Z,45.78
2019-03-25T11:18:10.002Z,42.08
2019-03-25T11:20:38.430Z,41.42
2019-03-25T11:23:06.941Z,42.80
2019-03-25T11:25:35.378Z,46.68
2019-03-25T11:28:03.831Z,43.70
2019-03-25T11:30:38.686Z,40.92
2019-03-25T11:33:07.149Z,41.80
2019-03-25T11:35:35.581Z,43.95
2019-03-25T11:38:04.045Z,42.88
2019-03-25T11:40:32.483Z,42.00
2019-03-25T11:43:00.953Z,43.73
2019-03-25T11:45:29.457Z,43.58
2019-03-25T11:47:57.906Z,45.28
2019-03-25T11:50:26.333Z,38.05
2019-03-25T11:52:54.785Z,30.85
2019-03-25T11:55:23.217Z,32.95
2019-03-25T11:57:51.765Z,32.60
2019-03-25T12:00:20.735Z,35.38
2019-03-25T12:02:49.180Z,37.05
2019-03-25T12:05:17.684Z,33.18
2019-03-25T12:07:46.137Z,30.35
2019-03-25T12:10:15.013Z,29.70
2019-03-25T12:12:43.460Z,28.07
2019-03-25T12:15:12.162Z,31.48
2019-03-25T12:17:40.606Z,27.10
2019-03-25T12:20:09.305Z,25.30
2019-03-25T12:22:37.733Z,20.35
2019-03-25T12:25:09.018Z,20.05
2019-03-25T12:27:37.486Z,22.05
2019-03-25T12:30:08.533Z,22.35
2019-03-25T12:32:36.965Z,23.43
2019-03-25T12:35:08.189Z,22.50
2019-03-25T12:37:36.616Z,20.88
2019-03-25T12:40:07.847Z,18.87
2019-03-25T12:42:36.153Z,22.43
2019-03-25T12:45:09.197Z,21.25
2019-03-25T12:47:37.630Z,23.62
2019-03-25T12:50:07.736Z,17.42
2019-03-25T12:52:36.521Z,21.87
2019-03-25T12:55:05.936Z,18.32
2019-03-25T12:57:34.705Z,20.12
2019-03-25T13:00:04.398Z,17.75
2019-03-25T13:02:32.840Z,19.92
2019-03-25T13:05:01.293Z,17.17
2019-03-25T13:07:29.716Z,18.25
2019-03-25T13:09:58.185Z,18.98
2019-03-25T13:12:26.627Z,19.27
2019-03-25T13:14:55.162Z,17.52
2019-03-25T13:17:23.897Z,22.80
2019-03-25T13:19:52.696Z,16.55
2019-03-25T13:22:21.125Z,21.07
2019-03-25T13:24:49.645Z,19.87
2019-03-25T13:27:18.085Z,17.50
2019-03-25T13:29:52.469Z,18.52
2019-03-25T13:32:16.701Z,17.70
2019-03-25T13:34:45.167Z,18.52
2019-03-25T13:37:13.605Z,16.55
2019-03-25T13:39:42.069Z,12.45
2019-03-25T13:42:10.509Z,14.78
2019-03-25T13:44:38.963Z,12.50
2019-03-25T13:47:07.396Z,16.93
2019-03-25T13:49:35.862Z,15.25
2019-03-25T13:52:04.301Z,11.88
2019-03-25T13:54:32.773Z,9.18
2019-03-25T13:57:01.616Z,12.85
2019-03-25T13:59:30.080Z,12.20
2019-03-25T14:01:58.525Z,9.93
2019-03-25T14:04:26.993Z,13.70
2019-03-25T14:06:55.426Z,10.23
2019-03-25T14:09:23.890Z,8.78
2019-03-25T14:11:52.322Z,8.33
2019-03-25T14:14:20.760Z,9.73
2019-03-25T14:16:49.213Z,8.20
2019-03-25T14:19:17.723Z,19.95
2019-03-25T14:21:46.265Z,10.20
2019-03-25T14:24:15.069Z,10.28
2019-03-25T14:26:43.507Z,10.60
2019-03-25T14:29:11.992Z,10.38
2019-03-25T14:31:40.434Z,3.77
2019-03-25T14:34:08.861Z,8.58
2019-03-25T14:36:37.309Z,2.47
2019-03-25T14:39:06.972Z,3.75
2019-03-25T14:41:35.485Z,2.72
2019-03-25T14:44:04.550Z,2.92
2019-03-25T14:46:32.994Z,6.08
2019-03-25T14:49:01.685Z,5.62
2019-03-25T14:51:30.197Z,5.67
2019-03-25T14:53:58.621Z,4.50
2019-03-25T14:56:27.062Z,4.55
2019-03-25T14:58:55.488Z,4.72
2019-03-25T15:01:23.999Z,4.03
2019-03-25T15:03:52.426Z,5.05
2019-03-25T15:06:20.885Z,5.30
2019-03-25T15:08:49.670Z,3.98
2019-03-25T15:11:18.114Z,5.22
2019-03-25T15:13:46.563Z,3.95
2019-03-25T15:16:15.069Z,7.37
2019-03-25T15:18:43.494Z,4.35
2019-03-25T15:21:11.929Z,8.23
2019-03-25T15:23:40.357Z,4.83
2019-03-25T15:26:08.928Z,3.47
2019-03-25T15:28:37.628Z,4.20
2019-03-25T15:31:06.061Z,8.40
2019-03-25T15:33:34.577Z,5.45
2019-03-25T15:36:03.002Z,2.60
2019-03-25T15:38:31.450Z,2.40
2019-03-25T15:41:00.242Z,2.77
2019-03-25T15:43:28.683Z,3.58
2019-03-25T15:45:57.110Z,5.33
2019-03-25T15:48:25.555Z,3.58
2019-03-25T15:50:54.229Z,4.25
2019-03-25T15:53:22.671Z,4.22
2019-03-25T15:55:51.094Z,5.35
2019-03-25T15:58:26.021Z,4.33
2019-03-25T16:00:49.682Z,3.85
2019-03-25T16:03:18.421Z,4.92
2019-03-25T16:05:46.844Z,4.78
2019-03-25T16:08:15.282Z,6.05
2019-03-25T16:10:43.962Z,7.00
2019-03-25T16:13:12.553Z,5.70
2019-03-25T16:15:42.635Z,5.45
2019-03-25T16:18:14.157Z,5.12
2019-03-25T16:20:42.571Z,7.58
2019-03-25T16:23:11.015Z,5.97
2019-03-25T16:25:39.438Z,5.37
2019-03-25T16:28:07.888Z,5.58
2019-03-25T16:30:36.324Z,4.85
2019-03-25T16:33:04.837Z,6.17
2019-03-25T16:35:33.268Z,6.67
2019-03-25T16:38:01.706Z,5.47
2019-03-25T16:40:30.131Z,5.42
2019-03-25T16:42:58.574Z,6.22
2019-03-25T16:45:27.006Z,6.35
2019-03-25T16:47:55.537Z,5.50
2019-03-25T16:50:23.958Z,5.50
2019-03-25T16:52:52.398Z,6.62
2019-03-25T16:55:20.821Z,6.33
2019-03-25T16:57:49.522Z,6.17
2019-03-25T17:00:26.921Z,6.78
2019-03-25T17:02:48.250Z,6.00
2019-03-25T17:05:16.810Z,6.40
2019-03-25T17:07:45.616Z,6.50
2019-03-25T17:10:14.386Z,6.15
2019-03-25T17:12:43.216Z,7.05
2019-03-25T17:15:12.301Z,6.62
2019-03-25T17:17:40.744Z,6.53
2019-03-25T17:20:10.105Z,6.65
2019-03-25T17:22:38.538Z,9.25
2019-03-25T17:25:07.915Z,7.47
2019-03-25T17:27:36.358Z,6.53
2019-03-25T17:30:13.989Z,5.67
2019-03-25T17:32:42.435Z,7.15
2019-03-25T17:35:11.477Z,4.97
2019-03-25T17:37:59.341Z,3.33
2019-03-25T17:40:27.797Z,4.65
2019-03-25T17:42:56.715Z,4.85
2019-03-25T17:45:25.376Z,5.58
2019-03-25T17:47:53.978Z,4.00
2019-03-25T17:50:22.665Z,4.37
2019-03-25T17:53:10.441Z,3.55
2019-03-25T17:55:38.873Z,4.60
2019-03-25T17:58:08.258Z,4.47
2019-03-25T18:00:51.821Z,3.60
2019-03-25T18:03:20.254Z,3.77
2019-03-25T18:05:48.724Z,3.30
2019-03-25T18:08:17.209Z,4.53
2019-03-25T18:10:45.633Z,3.47
2019-03-25T18:13:21.917Z,6.15
2019-03-25T18:15:44.577Z,3.35
2019-03-25T18:18:13.046Z,4.05
2019-03-25T18:20:41.666Z,3.55
2019-03-25T18:23:10.145Z,3.25
2019-03-25T18:25:39.072Z,4.08
2019-03-25T18:28:07.548Z,3.10
2019-03-25T18:30:36.826Z,5.00
2019-03-25T18:33:05.720Z,3.58
2019-03-25T18:35:34.513Z,3.52
2019-03-25T18:38:02.946Z,3.47
2019-03-25T18:40:31.522Z,4.83
2019-03-25T18:43:00.089Z,6.60
2019-03-25T18:45:28.983Z,7.95
2019-03-25T18:47:57.414Z,5.20
2019-03-25T18:50:25.924Z,6.33
2019-03-25T18:52:56.727Z,6.22
2019-03-25T18:55:24.521Z,4.35
2019-03-25T18:57:53.341Z,4.35
2019-03-25T19:00:33.481Z,2.25
2019-03-25T19:03:02.269Z,3.02
2019-03-25T19:05:31.397Z,3.90
2019-03-25T19:08:01.904Z,3.77
2019-03-25T19:10:30.490Z,2.87
2019-03-25T19:12:58.990Z,2.55
2019-03-25T19:15:27.460Z,2.52
2019-03-25T19:17:55.967Z,4.78
2019-03-25T19:20:24.465Z,3.95
2019-03-25T19:22:53.214Z,5.17
2019-03-25T19:25:21.680Z,2.10
2019-03-25T19:27:50.178Z,2.37
2019-03-25T19:30:18.762Z,3.08
2019-03-25T19:32:47.257Z,2.27
2019-03-25T19:35:15.749Z,3.58
2019-03-25T19:37:44.180Z,3.33
2019-03-25T19:40:13.113Z,3.37
2019-03-25T19:42:41.616Z,5.22
2019-03-25T19:45:11.102Z,4.83
2019-03-25T19:47:39.525Z,4.65
2019-03-25T19:50:08.593Z,6.22
2019-03-25T19:52:37.362Z,4.70
2019-03-25T19:55:06.290Z,4.95
2019-03-25T19:57:34.788Z,5.75
2019-03-25T20:00:03.940Z,4.95
2019-03-25T20:02:32.470Z,5.78
2019-03-25T20:05:01.001Z,4.75
2019-03-25T20:07:29.606Z,5.45
2019-03-25T20:09:58.195Z,4.40
2019-03-25T20:12:26.626Z,3.85
2019-03-25T20:14:55.057Z,5.20
2019-03-25T20:17:23.481Z,3.22
2019-03-25T20:19:51.923Z,4.33
2019-03-25T20:22:20.423Z,4.90
2019-03-25T20:24:49.138Z,6.67
2019-03-25T20:27:17.588Z,6.28
2019-03-25T20:29:46.098Z,7.72
2019-03-25T20:32:14.921Z,8.20
2019-03-25T20:34:43.410Z,8.15
2019-03-25T20:37:11.839Z,8.20
2019-03-25T20:39:40.322Z,7.62
2019-03-25T20:42:09.027Z,7.08
2019-03-25T20:44:37.468Z,7.22
2019-03-25T20:47:06.193Z,6.62
2019-03-25T20:49:34.675Z,7.05
2019-03-25T20:52:03.160Z,8.03
2019-03-25T20:54:31.732Z,6.92
2019-03-25T20:57:00.297Z,5.95
2019-03-25T20:59:28.763Z,6.72
2019-03-25T21:01:57.264Z,7.22
2019-03-25T21:04:25.749Z,7.30
2019-03-25T21:06:54.712Z,6.53
2019-03-25T21:09:23.367Z,5.85
2019-03-25T21:11:52.180Z,6.28
2019-03-25T21:14:20.716Z,4.78
2019-03-25T21:16:49.174Z,5.45
2019-03-25T21:19:17.690Z,5.62
2019-03-25T21:21:46.170Z,4.22
2019-03-25T21:24:14.629Z,3.95
2019-03-25T21:26:43.086Z,5.37
2019-03-25T21:29:11.817Z,4.60
2019-03-25T21:31:40.244Z,4.60
2019-03-25T21:34:08.667Z,3.92
2019-03-25T21:36:37.196Z,4.97
2019-03-25T21:39:07.190Z,4.37
2019-03-25T21:41:35.717Z,4.05
2019-03-25T21:44:04.198Z,4.83
2019-03-25T21:46:34.286Z,4.72
2019-03-25T21:49:02.761Z,5.47
2019-03-25T21:51:31.199Z,6.08
2019-03-25T21:53:59.667Z,5.45
2019-03-25T21:56:28.140Z,5.85
2019-03-25T21:58:56.561Z,5.37
2019-03-25T22:01:25.273Z,5.25
2019-03-25T22:03:53.757Z,5.97
2019-03-25T22:06:22.192Z,5.22
2019-03-25T22:08:50.616Z,6.72
2019-03-25T22:11:19.397Z,6.37
2019-03-25T22:13:47.829Z,6.05
2019-03-25T22:16:16.261Z,6.60
2019-03-25T22:18:44.688Z,6.47
2019-03-25T22:21:13.133Z,6.90
2019-03-25T22:23:41.553Z,7.72
2019-03-25T22:26:09.997Z,7.08
2019-03-25T22:28:38.418Z,7.95
2019-03-25T22:31:06.861Z,7.73
2019-03-25T22:33:35.281Z,9.13
2019-03-25T22:36:04.121Z,9.13
2019-03-25T22:38:32.589Z,9.15
2019-03-25T22:41:01.008Z,8.38
2019-03-25T22:43:29.453Z,8.90
2019-03-25T22:45:58.289Z,8.20
2019-03-25T22:48:26.731Z,8.28
2019-03-25T22:50:55.175Z,8.75
2019-03-25T22:53:23.597Z,8.40
2019-03-25T22:55:52.039Z,8.25
2019-03-25T22:58:20.469Z,8.33
2019-03-25T23:00:49.353Z,9.13
2019-03-25T23:03:17.838Z,9.10
2019-03-25T23:05:46.353Z,8.80
2019-03-25T23:08:14.787Z,8.75
2019-03-25T23:10:43.371Z,7.35
2019-03-25T23:13:11.875Z,8.28
2019-03-25T23:15:40.641Z,9.78
2019-03-25T23:18:09.412Z,8.00
2019-03-25T23:20:37.918Z,6.97
2019-03-25T23:23:06.341Z,6.62
2019-03-25T23:25:35.081Z,9.48
2019-03-25T23:28:03.581Z,7.90
2019-03-25T23:30:32.032Z,8.53
2019-03-25T23:33:00.526Z,9.03
2019-03-25T23:35:28.956Z,7.33
2019-03-25T23:37:57.385Z,7.55
2019-03-25T23:40:25.901Z,7.72
2019-03-25T23:42:54.657Z,7.70
2019-03-25T23:45:23.093Z,6.95
2019-03-25T23:47:51.528Z,8.40
2019-03-25T23:50:19.962Z,9.35
2019-03-25T23:52:48.696Z,9.75
2019-03-25T23:55:17.128Z,8.70
2019-03-25T23:57:45.559Z,7.97
